Time;durP1;ratioP1;P1;durP2;ratioP2;P2;SDS_P1;SDS_P2;PMS_P1;PMS_P2;Temp;Humidity;BMP_temperature;BMP_pressure;BME280_temperature;BME280_humidity;BME280_pressure;Samples;Min_cycle;Max_cycle;Signal;HPM_P1;HPM_P2
2024/04/24 00:00:06;;;;;;;11.80;10.60;;;;;;;8.99;64.30;100513.19;5278707;27;20274;-77
2024/04/24 00:02:31;;;;;;;14.50;12.30;;;;;;;9.19;63.79;100510.84;5279458;27;20435;-76
2024/04/24 00:05:00;;;;;;;12.10;10.37;;;;;;;9.04;63.84;100499.38;5279354;27;20454;-75
2024/04/24 00:07:25;;;;;;;12.37;10.93;;;;;;;9.18;63.55;100498.66;5250670;27;20239;-76
2024/04/24 00:09:50;;;;;;;11.83;10.63;;;;;;;9.16;63.67;100497.78;5280040;27;21048;-76
2024/04/24 00:12:16;;;;;;;12.50;11.20;;;;;;;9.31;64.01;100479.75;5279424;27;20303;-77
2024/04/24 00:14:41;;;;;;;13.00;11.50;;;;;;;8.17;65.68;100496.41;5279082;27;20219;-76
2024/04/24 00:17:06;;;;;;;12.60;11.30;;;;;;;9.33;63.25;100478.03;5279197;27;20247;-76
2024/04/24 00:19:32;;;;;;;13.30;11.90;;;;;;;9.00;64.17;100483.72;5279266;27;20227;-76
2024/04/24 00:21:57;;;;;;;14.03;11.00;;;;;;;9.04;63.81;100469.91;5279751;27;20234;-76
2024/04/24 00:24:22;;;;;;;13.10;11.70;;;;;;;8.98;63.74;100467.22;5280057;27;20223;-76
2024/04/24 00:26:48;;;;;;;14.30;12.23;;;;;;;8.88;64.42;100461.91;5248022;27;20274;-76
2024/04/24 00:29:13;;;;;;;13.10;11.57;;;;;;;8.94;65.33;100455.91;5242926;27;20259;-77
2024/04/24 00:31:38;;;;;;;13.13;11.60;;;;;;;8.91;64.57;100459.34;5244897;27;20244;-77
2024/04/24 00:34:04;;;;;;;15.90;11.27;;;;;;;8.93;64.06;100449.00;5246869;27;20220;-77
2024/04/24 00:36:29;;;;;;;12.13;10.43;;;;;;;8.63;65.41;100452.06;5249782;27;20615;-76
2024/04/24 00:38:55;;;;;;;12.37;10.67;;;;;;;7.96;66.67;100456.28;5242745;27;20236;-75
2024/04/24 00:41:21;;;;;;;13.30;12.00;;;;;;;9.08;65.15;100449.16;5244463;27;20271;-77
2024/04/24 00:43:47;;;;;;;11.70;10.53;;;;;;;7.93;66.91;100456.25;5242506;27;20965;-76
2024/04/24 00:46:14;;;;;;;15.30;11.20;;;;;;;8.08;65.70;100440.91;5246381;27;20271;-77
2024/04/24 00:48:41;;;;;;;14.23;10.60;;;;;;;8.72;66.24;100434.00;5244958;27;20255;-77
2024/04/24 00:51:09;;;;;;;11.10;9.90;;;;;;;8.72;64.85;100424.47;5249328;27;20528;-76
2024/04/24 00:53:34;;;;;;;13.53;10.40;;;;;;;9.04;64.38;100426.56;5245753;27;20459;-77
2024/04/24 00:56:01;;;;;;;11.60;10.40;;;;;;;8.21;66.41;100433.28;5246447;27;20496;-77
2024/04/24 00:58:27;;;;;;;11.60;9.97;;;;;;;8.06;66.15;100428.75;5243116;27;20318;-77
2024/04/24 01:00:52;;;;;;;11.73;10.53;;;;;;;8.88;64.91;100425.53;5244984;27;21005;-77
2024/04/24 01:03:18;;;;;;;12.60;11.30;;;;;;;8.85;64.65;100427.22;5252246;27;20330;-76
2024/04/24 01:05:44;;;;;;;12.23;10.50;;;;;;;8.63;65.72;100416.56;5245457;27;20271;-76
2024/04/24 01:08:09;;;;;;;12.20;10.77;;;;;;;9.09;64.03;100417.09;5246730;27;20240;-77
2024/04/24 01:10:35;;;;;;;12.13;10.93;;;;;;;8.86;64.33;100414.25;5246514;27;20920;-77
2024/04/24 01:13:00;;;;;;;12.93;11.50;;;;;;;8.67;65.21;100409.69;5243590;27;20316;-76
2024/04/24 01:15:25;;;;;;;14.17;10.47;;;;;;;9.02;64.21;100409.22;5245115;27;20274;-76
2024/04/24 01:17:54;;;;;;;12.90;11.03;;;;;;;8.95;64.06;100397.00;5264913;27;20295;-77
2024/04/24 01:20:23;;;;;;;12.60;11.30;;;;;;;8.35;65.54;100402.31;5280438;27;20262;-77
2024/04/24 01:23:13;;;;;;;14.80;11.60;;;;;;;8.83;64.44;100389.94;5279775;27;21063;-77
2024/04/24 01:25:49;;;;;;;12.53;11.23;;;;;;;8.83;64.57;100393.41;5242483;27;21009;-76
2024/04/24 01:28:15;;;;;;;13.83;11.30;;;;;;;9.25;63.65;100386.03;5245741;27;20440;-77
2024/04/24 01:30:40;;;;;;;12.77;11.37;;;;;;;7.78;65.87;100394.59;5244519;27;20508;-76
2024/04/24 01:33:05;;;;;;;12.83;11.43;;;;;;;8.37;65.87;100379.84;5250784;27;20271;-77
2024/04/24 01:35:31;;;;;;;13.50;11.57;;;;;;;8.57;65.16;100372.31;5247217;27;20228;-77
2024/04/24 01:37:56;;;;;;;13.93;12.53;;;;;;;8.51;66.12;100380.03;5249427;27;20270;-77
2024/04/24 01:40:21;;;;;;;13.03;11.60;;;;;;;8.61;65.58;100370.66;5247219;27;20220;-76
2024/04/24 01:42:47;;;;;;;20.30;12.60;;;;;;;8.59;64.70;100368.91;5247044;27;20224;-77
2024/04/24 01:45:12;;;;;;;14.50;12.77;;;;;;;8.73;65.15;100363.84;5247642;27;20267;-74
2024/04/24 01:47:37;;;;;;;17.87;12.90;;;;;;;9.18;64.17;100364.28;5247768;27;20332;-77
2024/04/24 01:50:03;;;;;;;14.90;12.67;;;;;;;9.49;62.91;100361.09;5250258;27;20266;-77
2024/04/24 01:52:28;;;;;;;14.73;13.23;;;;;;;8.74;64.95;100357.81;5251183;27;20810;-76
2024/04/24 01:54:53;;;;;;;19.07;13.67;;;;;;;8.89;64.17;100353.59;5248375;27;20225;-77
2024/04/24 01:57:19;;;;;;;16.73;13.53;;;;;;;8.67;64.36;100352.50;5248977;27;20225;-77
2024/04/24 01:59:44;;;;;;;17.40;13.80;;;;;;;8.68;65.23;100355.13;5247930;27;20232;-77
2024/04/24 02:02:09;;;;;;;16.93;14.40;;;;;;;8.57;65.58;100348.94;5247724;27;20271;-77
2024/04/24 02:04:34;;;;;;;16.30;14.20;;;;;;;9.00;64.98;100345.91;5250307;27;20232;-77
2024/04/24 02:07:00;;;;;;;16.33;14.63;;;;;;;9.09;63.52;100352.09;5248215;27;20224;-77
2024/04/24 02:09:25;;;;;;;18.10;14.67;;;;;;;9.15;63.96;100348.66;5246427;27;20275;-76
2024/04/24 02:11:50;;;;;;;22.07;16.80;;;;;;;9.16;64.21;100336.53;5247502;27;20228;-77
2024/04/24 02:14:15;;;;;;;17.43;15.37;;;;;;;9.25;63.22;100336.59;5251189;27;20236;-77
2024/04/24 02:16:41;;;;;;;19.50;16.83;;;;;;;8.06;66.06;100338.78;5253259;27;20605;-77
2024/04/24 02:19:06;;;;;;;16.23;14.40;;;;;;;7.98;65.60;100335.16;5287883;27;20270;-76
2024/04/24 02:21:31;;;;;;;19.00;14.90;;;;;;;8.74;64.81;100336.13;5281280;27;20239;-76
2024/04/24 02:23:59;;;;;;;17.73;14.30;;;;;;;8.66;64.85;100330.84;5286931;27;20278;-76
2024/04/24 02:26:25;;;;;;;19.90;13.83;;;;;;;9.13;63.88;100321.75;5259097;27;20236;-77
2024/04/24 02:28:50;;;;;;;19.93;15.53;;;;;;;7.67;67.99;100332.16;5247996;27;20556;-77
2024/04/24 02:31:15;;;;;;;20.13;15.03;;;;;;;8.33;66.04;100326.97;5249366;27;20545;-77
2024/04/24 02:33:41;;;;;;;16.47;14.67;;;;;;;8.28;66.66;100315.69;5246249;27;20699;-75
2024/04/24 02:36:06;;;;;;;16.20;14.47;;;;;;;8.25;66.27;100318.22;5247461;27;20220;-76
2024/04/24 02:38:31;;;;;;;18.67;15.97;;;;;;;8.79;65.20;100318.00;5249616;27;20262;-77
2024/04/24 02:40:56;;;;;;;17.73;14.37;;;;;;;8.59;65.40;100321.22;5249031;27;20245;-76
2024/04/24 02:43:22;;;;;;;16.47;14.37;;;;;;;8.14;65.80;100315.47;5249356;27;20224;-77
2024/04/24 02:45:47;;;;;;;17.53;14.17;;;;;;;8.44;65.28;100314.09;5249031;27;20232;-76
2024/04/24 02:48:12;;;;;;;15.13;13.37;;;;;;;8.52;65.39;100309.91;5246485;27;20232;-76
2024/04/24 02:50:38;;;;;;;15.77;13.10;;;;;;;8.62;65.25;100312.59;5246703;27;20281;-77
2024/04/24 02:53:03;;;;;;;14.93;12.97;;;;;;;8.49;64.74;100304.69;5246551;27;20667;-76
2024/04/24 02:55:28;;;;;;;15.67;13.70;;;;;;;8.89;63.95;100297.28;5246368;27;20228;-77
2024/04/24 02:57:54;;;;;;;20.30;15.70;;;;;;;8.76;64.25;100301.50;5245972;27;20695;-77
2024/04/24 03:00:19;;;;;;;20.07;14.33;;;;;;;8.76;64.37;100296.28;5248125;27;20311;-76
2024/04/24 03:02:44;;;;;;;18.80;14.20;;;;;;;9.28;62.71;100295.00;5246282;27;20224;-77
2024/04/24 03:05:09;;;;;;;16.33;13.00;;;;;;;8.84;64.43;100285.97;5245226;27;20267;-77
2024/04/24 03:07:36;;;;;;;16.80;12.93;;;;;;;8.66;64.35;100284.09;5246490;27;20267;-75
2024/04/24 03:10:02;;;;;;;14.27;11.97;;;;;;;8.99;63.72;100287.00;5246172;27;20224;-77
2024/04/24 03:12:28;;;;;;;14.03;12.20;;;;;;;8.87;63.32;100287.75;5248570;27;20464;-77
2024/04/24 03:14:53;;;;;;;14.63;11.50;;;;;;;8.16;64.25;100281.75;5243733;27;20279;-76
2024/04/24 03:17:18;;;;;;;14.93;12.73;;;;;;;8.47;64.12;100274.34;5258675;27;20235;-77
2024/04/24 03:19:44;;;;;;;12.77;11.57;;;;;;;8.83;63.38;100276.44;5279959;27;20266;-77
2024/04/24 03:22:09;;;;;;;15.20;12.37;;;;;;;8.48;64.67;100274.34;5250573;27;20729;-76
2024/04/24 03:24:34;;;;;;;13.97;11.77;;;;;;;9.20;63.40;100270.66;5279645;27;20223;-78
2024/04/24 03:27:00;;;;;;;14.77;11.57;;;;;;;9.10;62.87;100273.19;5246918;27;20228;-75
2024/04/24 03:29:25;;;;;;;13.20;11.47;;;;;;;8.90;63.35;100267.84;5246341;27;20325;-76
2024/04/24 03:31:50;;;;;;;15.80;11.10;;;;;;;8.93;63.25;100267.00;5246755;27;20303;-77
2024/04/24 03:34:16;;;;;;;11.90;10.60;;;;;;;9.02;62.54;100268.81;5247611;27;20334;-77
2024/04/24 03:36:42;;;;;;;15.80;12.23;;;;;;;8.39;63.58;100269.06;5249753;27;20220;-77
2024/04/24 03:39:07;;;;;;;15.33;13.73;;;;;;;8.62;63.95;100261.53;5245902;27;20224;-77
2024/04/24 03:41:32;;;;;;;30.43;17.30;;;;;;;8.83;62.65;100254.78;5246081;27;20464;-77
2024/04/24 03:43:58;;;;;;;28.70;19.23;;;;;;;9.23;62.37;100257.72;5245990;27;20240;-77
2024/04/24 03:46:23;;;;;;;19.30;14.50;;;;;;;8.12;64.28;100257.50;5245209;27;20227;-77
2024/04/24 03:48:48;;;;;;;18.93;10.30;;;;;;;8.54;64.02;100248.44;5245568;27;20232;-77
2024/04/24 03:51:13;;;;;;;14.23;9.60;;;;;;;9.11;62.46;100250.69;5246037;27;20591;-77
2024/04/24 03:53:39;;;;;;;11.07;8.27;;;;;;;9.24;61.54;100244.72;5245521;27;20276;-77
2024/04/24 03:56:04;;;;;;;11.27;9.03;;;;;;;9.48;61.59;100237.06;5245459;27;20685;-77
2024/04/24 03:58:29;;;;;;;10.50;8.80;;;;;;;8.63;63.00;100237.25;5244441;27;20224;-77
2024/04/24 04:00:55;;;;;;;12.90;9.70;;;;;;;8.50;63.93;100236.28;5244818;27;20240;-77
2024/04/24 04:03:20;;;;;;;10.07;8.97;;;;;;;8.69;63.47;100229.53;5245177;27;20239;-75
2024/04/24 04:05:45;;;;;;;12.10;10.83;;;;;;;8.24;63.41;100233.38;5244712;27;20291;-77
2024/04/24 04:08:11;;;;;;;13.00;9.00;;;;;;;8.82;62.49;100227.94;5244881;27;20327;-76
2024/04/24 04:10:36;;;;;;;11.10;9.90;;;;;;;8.73;61.92;100228.69;5244736;27;20769;-77
2024/04/24 04:13:02;;;;;;;12.33;10.27;;;;;;;8.57;63.09;100227.69;5245283;27;20275;-77
2024/04/24 04:15:27;;;;;;;9.80;8.80;;;;;;;8.16;63.85;100235.00;5242787;27;20258;-77
2024/04/24 04:17:53;;;;;;;11.40;8.97;;;;;;;8.59;62.84;100225.09;5264914;27;20579;-77
2024/04/24 04:20:18;;;;;;;9.70;7.93;;;;;;;8.91;62.44;100224.53;5277391;27;20224;-76
2024/04/24 04:22:43;;;;;;;12.67;9.53;;;;;;;9.31;61.93;100217.00;5277229;27;20219;-77
2024/04/24 04:25:09;;;;;;;14.30;10.00;;;;;;;9.27;61.45;100217.84;5270486;27;20240;-77
2024/04/24 04:27:34;;;;;;;13.33;9.50;;;;;;;8.98;61.41;100208.09;5249244;27;20224;-77
2024/04/24 04:29:59;;;;;;;13.30;10.87;;;;;;;9.22;60.85;100216.94;5244099;27;20291;-77
2024/04/24 04:32:25;;;;;;;13.83;9.70;;;;;;;9.13;60.85;100216.88;5245340;27;20243;-77
2024/04/24 04:34:51;;;;;;;14.80;10.00;;;;;;;9.09;61.04;100208.19;5244422;27;20327;-77
2024/04/24 04:37:16;;;;;;;11.90;10.60;;;;;;;8.14;63.48;100210.78;5244526;27;20428;-77
2024/04/24 04:39:41;;;;;;;14.07;10.70;;;;;;;9.08;61.44;100204.72;5244395;27;20691;-78
2024/04/24 04:42:07;;;;;;;12.90;11.27;;;;;;;8.86;61.73;100219.28;5244967;27;20244;-77
2024/04/24 04:44:32;;;;;;;17.60;11.90;;;;;;;9.29;60.62;100207.47;5246876;27;20646;-77
2024/04/24 04:46:57;;;;;;;13.93;12.27;;;;;;;8.23;63.45;100213.47;5248128;27;20239;-77
2024/04/24 04:49:23;;;;;;;14.33;11.60;;;;;;;7.93;64.18;100209.69;5245537;27;20616;-76
2024/04/24 04:51:48;;;;;;;23.10;15.73;;;;;;;7.84;64.38;100212.16;5243926;27;20232;-77
2024/04/24 04:54:13;;;;;;;16.60;12.40;;;;;;;8.51;63.64;100199.06;5243944;27;20354;-77
2024/04/24 04:56:38;;;;;;;14.60;11.27;;;;;;;8.10;64.10;100207.25;5244030;27;20718;-77
2024/04/24 04:59:04;;;;;;;14.43;10.70;;;;;;;7.79;63.99;100203.44;5243374;27;20224;-77
2024/04/24 05:01:29;;;;;;;16.30;10.67;;;;;;;8.69;62.85;100195.75;5243754;27;20726;-77
2024/04/24 05:03:54;;;;;;;14.23;10.97;;;;;;;8.95;62.02;100187.28;5241460;27;20228;-77
2024/04/24 05:06:19;;;;;;;13.10;10.80;;;;;;;8.48;62.19;100191.22;5242232;27;20228;-76
2024/04/24 05:08:45;;;;;;;11.67;10.47;;;;;;;7.92;63.41;100200.13;5244510;27;20228;-76
2024/04/24 05:11:10;;;;;;;14.93;11.07;;;;;;;8.50;63.21;100196.47;5243949;27;20342;-77
2024/04/24 05:13:35;;;;;;;14.27;11.17;;;;;;;7.76;64.24;100202.53;5243771;27;20224;-77
2024/04/24 05:16:01;;;;;;;14.70;11.00;;;;;;;7.16;65.41;100199.16;5244330;27;20238;-77
2024/04/24 05:18:26;;;;;;;12.37;9.90;;;;;;;7.34;65.21;100203.72;5272581;27;20551;-75
2024/04/24 05:20:52;;;;;;;17.30;10.00;;;;;;;7.84;65.31;100191.41;5277656;27;20285;-77
2024/04/24 05:23:17;;;;;;;11.93;10.27;;;;;;;8.89;62.12;100192.44;5277393;27;20231;-77
2024/04/24 05:25:51;;;;;;;14.53;10.60;;;;;;;8.29;63.44;100191.88;5260640;27;20253;-77
2024/04/24 05:31:01;;;;;;;14.33;9.70;;;;;;;7.88;63.90;100188.84;5243088;27;20511;-78
2024/04/24 05:33:26;;;;;;;13.37;9.50;;;;;;;8.20;64.13;100182.25;5243522;27;20444;-77
2024/04/24 05:35:52;;;;;;;16.60;10.87;;;;;;;8.22;63.68;100185.75;5243204;27;20228;-77
2024/04/24 05:38:17;;;;;;;17.10;13.47;;;;;;;8.70;62.02;100176.72;5244714;27;20830;-76
2024/04/24 05:40:42;;;;;;;18.20;12.13;;;;;;;9.16;61.15;100168.38;5268731;22;20282;-75
2024/04/24 05:43:08;;;;;;;12.67;9.60;;;;;;;8.91;60.76;100170.78;5308302;26;20285;-77
2024/04/24 05:45:33;;;;;;;11.17;9.53;;;;;;;8.17;63.57;100177.03;5336934;26;20278;-74
2024/04/24 05:48:00;;;;;;;13.83;9.40;;;;;;;8.27;62.21;100168.50;5309475;26;20229;-75
2024/04/24 05:50:25;;;;;;;15.27;9.40;;;;;;;8.47;62.63;100165.25;5309598;26;20226;-76
2024/04/24 05:52:50;;;;;;;15.20;9.70;;;;;;;8.53;62.60;100168.75;5309916;26;20986;-76
2024/04/24 05:55:16;;;;;;;21.43;15.70;;;;;;;8.47;62.77;100167.84;5309841;27;20567;-75
2024/04/24 05:57:41;;;;;;;13.73;10.97;;;;;;;7.91;63.15;100167.25;5309486;27;20261;-76
2024/04/24 06:00:08;;;;;;;32.47;24.10;;;;;;;7.86;64.51;100179.28;5307738;27;20230;-75
2024/04/24 06:02:34;;;;;;;9.23;8.20;;;;;;;8.56;62.50;100158.38;5311750;27;20242;-74
2024/04/24 06:05:00;;;;;;;11.00;8.47;;;;;;;8.35;62.95;100173.75;5311986;27;20445;-74
2024/04/24 06:07:26;;;;;;;9.43;8.13;;;;;;;8.26;63.64;100164.16;5309680;26;20349;-75
2024/04/24 06:09:51;;;;;;;11.07;6.83;;;;;;;8.62;62.82;100167.97;5307935;27;20457;-74
2024/04/24 06:12:17;;;;;;;11.60;8.60;;;;;;;8.37;61.75;100166.84;5309478;27;20273;-76
2024/04/24 06:14:42;;;;;;;8.73;6.17;;;;;;;8.74;61.82;100167.19;5307107;27;20590;-77
2024/04/24 06:17:07;;;;;;;6.50;5.70;;;;;;;7.54;65.18;100172.00;5309092;27;20238;-76
2024/04/24 06:19:32;;;;;;;7.80;5.60;;;;;;;7.93;64.69;100166.41;5312640;27;20222;-76
2024/04/24 06:21:58;;;;;;;19.30;13.13;;;;;;;8.43;62.60;100161.72;5312379;27;20238;-75
2024/04/24 06:24:23;;;;;;;17.10;13.23;;;;;;;8.54;62.91;100173.09;5310792;27;20261;-76
2024/04/24 06:26:48;;;;;;;6.67;5.70;;;;;;;9.12;61.35;100161.41;5310688;27;20284;-76
2024/04/24 06:29:14;;;;;;;7.13;4.50;;;;;;;9.14;60.46;100171.81;5310579;27;20230;-74
2024/04/24 06:31:39;;;;;;;4.70;3.87;;;;;;;8.19;62.12;100170.16;5312748;27;20234;-76
2024/04/24 06:34:04;;;;;;;5.33;3.90;;;;;;;7.86;63.32;100169.81;5312990;26;20274;-75
2024/04/24 06:36:29;;;;;;;6.30;3.50;;;;;;;8.76;61.18;100168.09;5312699;27;20222;-76
2024/04/24 06:38:55;;;;;;;3.93;3.60;;;;;;;7.93;62.88;100170.75;5312387;26;20261;-76
2024/04/24 06:41:20;;;;;;;7.00;3.73;;;;;;;7.95;63.42;100166.44;5311561;26;20580;-74
2024/04/24 06:43:45;;;;;;;7.90;5.90;;;;;;;8.21;63.09;100165.81;5311741;27;20268;-75
2024/04/24 06:46:11;;;;;;;10.03;6.43;;;;;;;8.17;62.03;100164.06;5310293;27;20226;-75
2024/04/24 06:48:36;;;;;;;5.00;4.50;;;;;;;8.28;62.32;100159.84;5311641;26;20238;-75
2024/04/24 06:51:02;;;;;;;5.33;4.33;;;;;;;8.29;62.60;100158.97;5310284;27;20289;-76
2024/04/24 06:53:29;;;;;;;6.30;4.70;;;;;;;7.65;64.00;100162.63;5312313;26;20226;-75
2024/04/24 06:56:01;;;;;;;6.33;4.90;;;;;;;8.49;62.59;100156.59;5311984;26;20316;-75
2024/04/24 06:58:29;;;;;;;7.37;4.83;;;;;;;8.12;63.03;100157.94;5310070;27;20507;-75
2024/04/24 07:00:54;;;;;;;7.77;5.57;;;;;;;7.85;64.23;100162.88;5311558;26;20558;-74
2024/04/24 07:03:20;;;;;;;7.03;5.23;;;;;;;8.67;63.59;100155.88;5310699;27;21046;-76
2024/04/24 07:05:45;;;;;;;6.57;5.60;;;;;;;8.86;62.45;100150.81;5311668;27;20237;-76
2024/04/24 07:08:11;;;;;;;7.03;6.10;;;;;;;8.22;63.75;100160.66;5310834;27;20226;-75
2024/04/24 07:10:37;;;;;;;7.60;6.07;;;;;;;7.95;65.10;100161.22;5311919;26;20226;-75
2024/04/24 07:13:02;;;;;;;7.30;5.90;;;;;;;8.34;63.73;100157.31;5311795;26;20507;-76
2024/04/24 07:15:28;;;;;;;8.13;6.70;;;;;;;8.77;63.42;100156.84;5312175;26;20219;-76
2024/04/24 07:17:53;;;;;;;16.43;11.23;;;;;;;8.69;63.29;100159.38;5310919;27;20261;-75
2024/04/24 07:20:19;;;;;;;10.00;6.60;;;;;;;8.77;62.93;100152.50;5311501;26;20322;-75
2024/04/24 07:22:44;;;;;;;7.53;6.87;;;;;;;8.70;63.01;100155.91;5309816;27;20277;-76
2024/04/24 07:25:11;;;;;;;8.10;5.77;;;;;;;8.55;63.37;100160.97;5311512;27;20234;-76
2024/04/24 07:27:36;;;;;;;6.80;5.40;;;;;;;8.22;63.42;100157.19;5311454;26;20839;-76
2024/04/24 07:30:03;;;;;;;5.33;4.83;;;;;;;8.63;63.40;100155.84;5310685;27;20453;-74
2024/04/24 07:32:29;;;;;;;6.50;5.73;;;;;;;8.52;64.24;100155.75;5311690;26;20730;-76
2024/04/24 07:34:54;;;;;;;8.03;5.43;;;;;;;8.02;64.76;100154.38;5311777;27;20437;-75
2024/04/24 07:37:19;;;;;;;7.03;6.23;;;;;;;8.67;63.13;100149.81;5311567;27;20323;-76
2024/04/24 07:39:45;;;;;;;7.63;5.40;;;;;;;8.64;63.19;100145.47;5311900;26;20272;-75
2024/04/24 07:42:10;;;;;;;7.13;5.80;;;;;;;8.06;64.86;100149.25;5311395;26;20226;-76
2024/04/24 07:44:35;;;;;;;6.77;6.07;;;;;;;8.54;65.76;100149.72;5309356;27;20269;-76
2024/04/24 07:47:00;;;;;;;6.87;6.27;;;;;;;9.38;63.41;100142.47;5311200;27;20289;-75
2024/04/24 07:49:26;;;;;;;8.07;5.83;;;;;;;8.90;63.67;100143.06;5311251;27;20726;-77
2024/04/24 07:51:51;;;;;;;7.03;5.33;;;;;;;8.15;65.01;100151.06;5309763;27;20238;-74
2024/04/24 07:54:16;;;;;;;6.50;5.07;;;;;;;8.47;64.54;100145.34;5309140;27;20585;-76
2024/04/24 07:56:41;;;;;;;5.57;4.80;;;;;;;8.84;63.38;100144.75;5312129;26;20222;-76
2024/04/24 07:59:08;;;;;;;7.63;5.80;;;;;;;9.04;63.58;100144.91;5309268;27;20708;-75
2024/04/24 08:01:33;;;;;;;7.37;5.80;;;;;;;8.59;63.66;100142.84;5311282;26;20280;-74
2024/04/24 08:03:58;;;;;;;11.27;5.37;;;;;;;8.99;62.84;100146.59;5309794;27;20473;-76
2024/04/24 08:06:24;;;;;;;5.13;4.73;;;;;;;8.29;64.67;100148.59;5300276;27;21362;-76
2024/04/24 08:08:49;;;;;;;5.47;4.87;;;;;;;7.65;65.93;100153.97;5291779;26;20585;-74
2024/04/24 08:11:14;;;;;;;6.80;5.50;;;;;;;8.51;65.55;100146.22;5275227;27;20246;-77
2024/04/24 08:13:39;;;;;;;10.73;7.17;;;;;;;8.48;65.21;100152.25;5276937;27;20579;-76
2024/04/24 08:16:05;;;;;;;20.03;13.83;;;;;;;8.43;65.45;100152.19;5277272;27;20223;-76
2024/04/24 08:18:30;;;;;;;5.97;5.37;;;;;;;8.11;64.45;100159.69;5276719;27;20235;-74
2024/04/24 08:20:56;;;;;;;5.80;5.20;;;;;;;8.46;65.14;100160.88;5273999;27;20251;-75
2024/04/24 08:23:21;;;;;;;5.57;4.70;;;;;;;9.05;63.13;100157.91;5276851;27;20227;-74
2024/04/24 08:25:46;;;;;;;5.77;4.90;;;;;;;8.93;63.18;100158.69;5276816;27;20230;-75
2024/04/24 08:28:12;;;;;;;5.27;4.70;;;;;;;8.68;63.46;100159.38;5276950;27;20227;-75
2024/04/24 08:30:37;;;;;;;5.87;4.60;;;;;;;8.97;63.39;100156.09;5279995;27;20236;-75
2024/04/24 08:33:03;;;;;;;5.80;5.20;;;;;;;9.00;63.16;100154.41;5277435;27;20341;-75
2024/04/24 08:35:28;;;;;;;7.20;6.60;;;;;;;8.75;64.41;100164.63;5278380;27;20282;-74
2024/04/24 08:37:53;;;;;;;5.87;5.30;;;;;;;9.15;63.41;100157.97;5274307;27;20223;-74
2024/04/24 08:40:19;;;;;;;5.47;4.90;;;;;;;9.13;63.27;100152.72;5276496;27;20269;-76
2024/04/24 08:42:44;;;;;;;5.57;4.97;;;;;;;9.25;63.48;100150.22;5276511;27;20235;-75
2024/04/24 08:45:14;;;;;;;6.30;5.27;;;;;;;9.61;63.03;100150.38;5276958;27;20652;-76
2024/04/24 08:47:40;;;;;;;7.50;5.90;;;;;;;9.37;63.16;100154.59;5276600;27;20282;-76
2024/04/24 08:50:06;;;;;;;6.30;5.70;;;;;;;9.67;62.98;100141.72;5276774;27;20992;-76
2024/04/24 08:52:36;;;;;;;6.37;5.43;;;;;;;9.43;63.29;100145.94;5276794;27;20321;-76
2024/04/24 08:55:03;;;;;;;6.97;5.67;;;;;;;9.77;61.83;100149.56;5276561;27;20611;-76
2024/04/24 08:57:29;;;;;;;7.17;5.90;;;;;;;9.79;62.16;100149.56;5276508;27;20701;-77
2024/04/24 09:00:01;;;;;;;7.07;5.83;;;;;;;9.31;62.13;100145.91;5281853;27;20460;-75
2024/04/24 09:02:32;;;;;;;8.70;6.23;;;;;;;9.63;62.73;100142.56;5308568;27;20525;-76
2024/04/24 09:04:58;;;;;;;7.40;6.33;;;;;;;10.17;60.38;100137.53;5310767;26;20507;-75
2024/04/24 09:07:25;;;;;;;7.17;5.80;;;;;;;9.87;61.78;100142.66;5310723;26;20449;-75
2024/04/24 09:09:50;;;;;;;6.90;6.00;;;;;;;10.03;61.43;100140.09;5310562;26;20603;-75
2024/04/24 09:12:16;;;;;;;9.40;6.50;;;;;;;10.49;60.17;100128.91;5310655;26;20461;-76
2024/04/24 09:14:44;;;;;;;8.20;6.60;;;;;;;9.89;61.20;100132.25;5310948;26;20223;-74
2024/04/24 09:17:09;;;;;;;7.30;5.73;;;;;;;10.42;59.91;100128.88;5310977;26;20441;-74
2024/04/24 09:19:37;;;;;;;6.60;5.80;;;;;;;10.19;60.86;100128.84;5310334;26;20568;-76
2024/04/24 09:22:02;;;;;;;7.60;6.57;;;;;;;10.45;60.90;100128.88;5310376;26;20286;-76
2024/04/24 09:24:27;;;;;;;6.03;5.43;;;;;;;9.02;62.42;100134.47;5310353;26;20445;-77
2024/04/24 09:26:55;;;;;;;9.53;6.00;;;;;;;10.50;60.34;100128.00;5310504;26;20270;-76
2024/04/24 09:29:20;;;;;;;6.00;5.40;;;;;;;10.21;59.83;100124.47;5310160;26;20352;-76
2024/04/24 09:31:46;;;;;;;7.00;5.37;;;;;;;10.23;59.16;100122.78;5314394;27;20461;-76
2024/04/24 09:34:12;;;;;;;5.93;4.90;;;;;;;9.86;58.87;100121.81;5315405;26;20327;-77
2024/04/24 09:36:37;;;;;;;9.03;5.43;;;;;;;9.76;59.16;100126.16;5311849;26;20456;-77
2024/04/24 09:39:16;;;;;;;7.03;6.23;;;;;;;9.86;58.69;100125.28;5311183;26;20335;-76
2024/04/24 09:41:43;;;;;;;7.10;5.43;;;;;;;10.00;59.66;100114.94;5310199;26;20237;-75
2024/04/24 09:44:12;;;;;;;8.40;6.90;;;;;;;10.36;59.04;100121.06;5311927;26;20841;-76
2024/04/24 09:46:47;;;;;;;16.17;4.83;;;;;;;9.97;59.10;100120.09;5309743;26;20436;-76
2024/04/24 09:49:13;;;;;;;8.77;5.80;;;;;;;9.46;60.02;100129.47;5309384;26;20557;-76
2024/04/24 09:51:38;;;;;;;7.20;5.00;;;;;;;9.90;59.61;100128.78;5310378;27;20839;-76
2024/04/24 09:54:04;;;;;;;8.73;6.53;;;;;;;9.68;60.57;100122.66;5314149;27;20214;-76
2024/04/24 09:56:36;;;;;;;6.17;5.00;;;;;;;10.11;60.08;100115.78;5313396;26;20621;-77
2024/04/24 09:59:05;;;;;;;5.67;5.23;;;;;;;10.59;58.99;100115.88;5312825;26;20499;-76
2024/04/24 10:01:32;;;;;;;7.40;5.60;;;;;;;10.81;58.00;100113.25;5285491;26;20530;-76
2024/04/24 10:04:00;;;;;;;6.77;5.50;;;;;;;10.87;57.63;100112.34;5279688;27;20573;-76
2024/04/24 10:06:28;;;;;;;8.40;6.50;;;;;;;10.81;56.97;100107.13;5283131;27;21076;-76
2024/04/24 10:08:56;;;;;;;6.50;5.73;;;;;;;11.03;57.12;100108.84;5316309;26;20463;-74
2024/04/24 10:11:29;;;;;;;6.63;5.73;;;;;;;11.12;56.21;100107.94;5327866;26;20476;-76
2024/04/24 10:13:56;;;;;;;6.00;4.97;;;;;;;11.42;56.33;100104.38;5312690;26;20499;-75
2024/04/24 10:16:22;;;;;;;7.40;5.30;;;;;;;11.18;56.21;100105.31;5283040;26;20434;-75
2024/04/24 10:18:49;;;;;;;6.87;5.73;;;;;;;12.54;54.92;100101.06;5278583;27;20777;-75
2024/04/24 10:21:15;;;;;;;5.50;4.70;;;;;;;12.69;53.45;100093.09;5278457;27;20438;-76
2024/04/24 10:23:41;;;;;;;16.70;10.60;;;;;;;12.35;53.93;100089.91;5290883;27;21078;-76
2024/04/24 10:26:06;;;;;;;8.60;5.37;;;;;;;11.73;54.59;100093.78;5311502;27;20500;-76
2024/04/24 10:28:32;;;;;;;7.23;5.30;;;;;;;12.62;55.24;100086.19;5312422;26;20214;-76
2024/04/24 10:31:00;;;;;;;5.30;4.73;;;;;;;11.65;53.61;100094.69;5312801;26;20280;-76
2024/04/24 10:33:27;;;;;;;8.93;6.90;;;;;;;12.20;51.41;100094.38;5312585;26;20433;-76
2024/04/24 10:35:55;;;;;;;5.83;5.23;;;;;;;12.30;51.98;100095.19;5312858;27;20417;-78
2024/04/24 10:38:24;;;;;;;5.50;4.50;;;;;;;11.48;55.99;100108.69;5311957;27;20785;-75
2024/04/24 10:40:51;;;;;;;4.40;3.63;;;;;;;11.51;54.65;100103.44;5300294;26;20458;-77
2024/04/24 10:43:16;;;;;;;5.10;3.87;;;;;;;11.12;57.63;100110.53;5278916;27;20575;-74
2024/04/24 10:45:42;;;;;;;4.17;3.50;;;;;;;10.90;59.20;100100.16;5278300;27;21035;-77
2024/04/24 10:48:12;;;;;;;5.30;4.30;;;;;;;10.79;59.10;100107.16;5299658;27;20226;-76
2024/04/24 10:50:38;;;;;;;6.83;4.70;;;;;;;11.02;58.05;100101.88;5312111;26;20280;-76
2024/04/24 10:53:04;;;;;;;4.77;3.93;;;;;;;10.95;57.83;100102.78;5312559;26;20493;-75
2024/04/24 10:55:30;;;;;;;7.37;4.63;;;;;;;10.34;59.47;100103.69;5312577;27;20573;-76
2024/04/24 10:57:55;;;;;;;4.43;3.90;;;;;;;10.50;58.95;100108.06;5312509;27;20429;-76
2024/04/24 11:00:29;;;;;;;4.50;3.80;;;;;;;10.27;59.75;100113.22;5312146;27;20327;-76
2024/04/24 11:02:57;;;;;;;4.97;4.47;;;;;;;9.87;60.60;100111.41;5311593;26;20246;-75
2024/04/24 11:05:23;;;;;;;4.57;3.47;;;;;;;10.56;58.60;100096.75;5304152;27;20470;-75
2024/04/24 11:07:57;;;;;;;4.30;3.60;;;;;;;10.74;59.94;100098.47;5277847;27;20442;-76
2024/04/24 11:10:23;;;;;;;4.43;4.03;;;;;;;11.02;58.91;100093.19;5277973;27;20450;-76
2024/04/24 11:12:49;;;;;;;4.13;3.73;;;;;;;11.27;58.54;100093.97;5275606;27;20450;-76
2024/04/24 11:15:22;;;;;;;5.53;4.10;;;;;;;11.44;57.01;100084.34;5294950;27;20576;-76
2024/04/24 11:17:51;;;;;;;3.73;3.27;;;;;;;11.59;57.61;100090.38;5311859;26;20253;-76
2024/04/24 11:20:21;;;;;;;6.73;5.37;;;;;;;11.33;57.78;100088.75;5311334;26;20584;-75